createdAt,value
2023-08-11T00:01:17.477Z,97526.09
2023-08-11T00:03:44.300Z,97525.97
2023-08-11T00:06:10.858Z,97527.03
2023-08-11T00:08:37.593Z,97529.03
2023-08-11T00:11:04.177Z,97528.78
2023-08-11T00:13:30.757Z,97539.38
2023-08-11T00:15:57.393Z,97539.91
2023-08-11T00:18:24.328Z,97542.31
2023-08-11T00:20:51.031Z,97538.50
2023-08-11T00:23:17.608Z,97542.75
2023-08-11T00:25:44.239Z,97540.91
2023-08-11T00:28:10.775Z,97548.38
2023-08-11T00:30:37.390Z,97551.84
2023-08-11T00:33:04.018Z,97561.13
2023-08-11T00:35:30.639Z,97551.38
2023-08-11T00:37:57.504Z,97556.13
2023-08-11T00:40:24.111Z,97553.75
2023-08-11T00:42:50.808Z,97558.00
2023-08-11T00:45:17.428Z,97554.09
2023-08-11T00:47:44.121Z,97556.88
2023-08-11T00:50:10.800Z,97567.34
2023-08-11T00:52:37.470Z,97564.75
2023-08-11T00:55:04.142Z,97569.81
2023-08-11T00:57:30.760Z,97571.53
2023-08-11T00:59:57.639Z,97571.34
2023-08-11T01:02:24.325Z,97570.22
2023-08-11T01:04:50.885Z,97568.22
2023-08-11T01:07:17.447Z,97573.84
2023-08-11T01:09:43.996Z,97570.28
2023-08-11T01:12:10.615Z,97577.91
2023-08-11T01:14:37.236Z,97574.16
2023-08-11T01:17:03.941Z,97578.34
2023-08-11T01:19:30.586Z,97576.25
2023-08-11T01:21:57.183Z,97581.69
2023-08-11T01:24:23.806Z,97586.72
2023-08-11T01:26:50.360Z,97582.78
2023-08-11T01:29:17.000Z,97583.25
2023-08-11T01:31:46.663Z,97582.53
2023-08-11T01:34:13.341Z,97584.78
2023-08-11T01:36:39.932Z,97581.16
2023-08-11T01:39:06.613Z,97585.34
2023-08-11T01:41:33.161Z,97584.09
2023-08-11T01:43:59.712Z,97585.72
2023-08-11T01:46:26.363Z,97588.06
2023-08-11T01:48:53.021Z,97584.19
2023-08-11T01:51:19.678Z,97588.88
2023-08-11T01:53:46.295Z,97591.25
2023-08-11T01:56:12.887Z,97595.50
2023-08-11T01:58:39.430Z,97593.97
2023-08-11T02:01:06.042Z,97600.19
2023-08-11T02:03:32.763Z,97604.84
2023-08-11T02:05:59.437Z,97603.81
2023-08-11T02:08:26.087Z,97609.19
2023-08-11T02:10:52.636Z,97611.69
2023-08-11T02:13:19.255Z,97606.47
2023-08-11T02:15:45.909Z,97609.22
2023-08-11T02:18:12.500Z,97613.97
2023-08-11T02:20:39.150Z,97609.28
2023-08-11T02:23:05.787Z,97613.91
2023-08-11T02:25:32.373Z,97613.19
2023-08-11T02:27:59.039Z,97611.88
2023-08-11T02:30:25.620Z,97613.19
2023-08-11T02:32:52.279Z,97609.00
2023-08-11T02:35:19.190Z,97615.91
2023-08-11T02:37:45.832Z,97604.00
2023-08-11T02:40:12.450Z,97609.38
2023-08-11T02:42:39.030Z,97611.88
2023-08-11T02:45:05.810Z,97603.41
2023-08-11T02:47:32.511Z,97607.19
2023-08-11T02:49:59.134Z,97599.09
2023-08-11T02:52:25.733Z,97604.94
2023-08-11T02:54:52.364Z,97600.41
2023-08-11T02:57:18.966Z,97605.75
2023-08-11T02:59:45.565Z,97606.19
2023-08-11T03:02:12.365Z,97600.41
2023-08-11T03:04:39.011Z,97602.69
2023-08-11T03:07:05.627Z,97606.50
2023-08-11T03:09:32.280Z,97607.34
2023-08-11T03:11:58.814Z,97604.13
2023-08-11T03:14:26.427Z,97604.00
2023-08-11T03:16:53.076Z,97602.13
2023-08-11T03:19:19.672Z,97602.13
2023-08-11T03:21:46.307Z,97609.63
2023-08-11T03:24:14.626Z,97613.03
2023-08-11T03:26:41.480Z,97612.72
2023-08-11T03:29:08.045Z,97608.84
2023-08-11T03:31:34.718Z,97620.50
2023-08-11T03:34:01.317Z,97619.72
2023-08-11T03:36:29.030Z,97622.25
2023-08-11T03:38:55.622Z,97625.81
2023-08-11T03:41:22.226Z,97609.69
2023-08-11T03:43:48.838Z,97616.59
2023-08-11T03:46:15.494Z,97619.75
2023-08-11T03:48:42.133Z,97615.59
2023-08-11T03:51:08.753Z,97618.31
2023-08-11T03:53:35.395Z,97618.06
2023-08-11T03:56:02.043Z,97613.78
2023-08-11T03:58:28.631Z,97615.28
2023-08-11T04:00:55.329Z,97616.06
2023-08-11T04:03:22.077Z,97617.94
2023-08-11T04:05:48.778Z,97613.38
2023-08-11T04:08:15.388Z,97618.16
2023-08-11T04:10:41.988Z,97623.03
2023-08-11T04:13:11.570Z,97617.31
2023-08-11T04:15:38.187Z,97613.38
2023-08-11T04:18:04.963Z,97627.44
2023-08-11T04:20:31.531Z,97623.88
2023-08-11T04:22:58.149Z,97619.59
2023-08-11T04:25:24.752Z,97619.94
2023-08-11T04:27:51.465Z,97627.03
2023-08-11T04:30:18.028Z,97626.19
2023-08-11T04:32:44.795Z,97629.25
2023-08-11T04:35:11.486Z,97633.19
2023-08-11T04:37:38.122Z,97641.28
2023-08-11T04:40:04.757Z,97642.59
2023-08-11T04:42:31.279Z,97631.69
2023-08-11T04:44:58.000Z,97633.63
2023-08-11T04:47:24.573Z,97634.00
2023-08-11T04:49:51.248Z,97633.00
2023-08-11T04:52:17.851Z,97629.53
2023-08-11T04:54:44.500Z,97641.09
2023-08-11T04:57:11.089Z,97637.75
2023-08-11T04:59:37.756Z,97642.25
2023-08-11T05:02:04.380Z,97639.25
2023-08-11T05:04:31.032Z,97639.59
2023-08-11T05:06:57.643Z,97650.34
2023-08-11T05:09:27.113Z,97655.09
2023-08-11T05:11:53.773Z,97655.53
2023-08-11T05:14:20.476Z,97651.91
2023-08-11T05:16:47.029Z,97657.31
2023-08-11T05:19:13.575Z,97649.56
2023-08-11T05:21:40.171Z,97645.13
2023-08-11T05:24:06.687Z,97655.09
2023-08-11T05:26:33.306Z,97656.84
2023-08-11T05:29:00.039Z,97661.25
2023-08-11T05:31:26.863Z,97660.38
2023-08-11T05:33:53.464Z,97662.72
2023-08-11T05:36:20.032Z,97666.56
2023-08-11T05:38:46.686Z,97662.41
2023-08-11T05:41:13.305Z,97674.38
2023-08-11T05:43:39.885Z,97668.88
2023-08-11T05:46:06.521Z,97671.56
2023-08-11T05:48:33.218Z,97670.91
2023-08-11T05:50:59.871Z,97675.78
2023-08-11T05:53:26.452Z,97674.66
2023-08-11T05:55:53.028Z,97675.75
2023-08-11T05:58:19.560Z,97680.81
2023-08-11T06:00:46.114Z,97690.44
2023-08-11T06:03:12.752Z,97686.47
2023-08-11T06:05:39.377Z,97690.72
2023-08-11T06:08:07.136Z,97690.47
2023-08-11T06:10:33.885Z,97696.16
2023-08-11T06:13:00.553Z,97690.34
2023-08-11T06:15:27.141Z,97690.88
2023-08-11T06:17:53.800Z,97692.88
2023-08-11T06:20:30.149Z,97696.66
2023-08-11T06:23:02.050Z,97692.63
2023-08-11T15:07:00.099Z,97444.00
2023-08-11T15:09:26.712Z,97444.84
2023-08-11T15:11:53.309Z,97440.00
2023-08-11T15:14:19.971Z,97438.97
2023-08-11T15:16:46.921Z,97437.25
2023-08-11T15:19:16.565Z,97435.06
2023-08-11T15:21:43.205Z,97428.44
2023-08-11T15:24:09.823Z,97430.16
2023-08-11T15:26:36.485Z,97427.09
2023-08-11T15:29:03.135Z,97429.91
2023-08-11T15:31:29.775Z,97421.56
2023-08-11T15:33:56.413Z,97424.22
2023-08-11T15:36:24.200Z,97414.53
2023-08-11T15:38:50.874Z,97427.91
2023-08-11T15:41:17.580Z,97411.03
2023-08-11T15:43:44.451Z,97411.78
2023-08-11T15:46:11.161Z,97406.91
2023-08-11T15:48:37.793Z,97406.91
2023-08-11T15:51:04.693Z,97405.72
2023-08-11T15:53:31.602Z,97398.81
2023-08-11T15:55:58.421Z,97402.88
2023-08-11T15:58:25.148Z,97404.31
2023-08-11T16:00:51.716Z,97405.13
2023-08-11T16:03:18.484Z,97400.41
2023-08-11T16:05:45.180Z,97398.81
2023-08-11T16:08:11.793Z,97397.44
2023-08-11T16:10:38.351Z,97396.53
2023-08-11T16:13:04.953Z,97395.91
2023-08-11T16:15:31.627Z,97395.06
2023-08-11T16:17:58.225Z,97399.47
2023-08-11T16:20:24.891Z,97393.78
2023-08-11T16:22:51.559Z,97387.69
2023-08-11T16:25:18.102Z,97386.94
2023-08-11T16:27:44.746Z,97384.41
2023-08-11T16:30:11.397Z,97383.81
2023-08-11T16:32:38.398Z,97385.34
2023-08-11T16:35:05.012Z,97370.41
2023-08-11T16:37:31.639Z,97371.31
2023-08-11T16:39:58.204Z,97372.22
2023-08-11T16:42:24.819Z,97366.41
2023-08-11T16:44:56.365Z,97381.50
2023-08-11T16:47:22.995Z,97370.38
2023-08-11T16:49:49.621Z,97376.25
2023-08-11T16:52:16.187Z,97375.78
2023-08-11T16:54:42.747Z,97371.38
2023-08-11T16:57:09.325Z,97383.06
2023-08-11T16:59:35.942Z,97373.88
2023-08-11T17:02:02.560Z,97375.38
2023-08-11T17:04:29.177Z,97387.03
2023-08-11T17:06:59.161Z,97381.13
2023-08-11T17:09:25.912Z,97382.91
2023-08-11T17:11:52.491Z,97380.38
2023-08-11T17:14:19.038Z,97381.47
2023-08-11T17:16:45.674Z,97379.75
2023-08-11T17:33:20.576Z,97384.38
2023-08-11T17:35:47.171Z,97389.97
2023-08-11T17:38:13.768Z,97380.81
2023-08-11T17:40:40.357Z,97381.44
2023-08-11T17:43:07.108Z,97382.34
2023-08-11T17:45:33.820Z,97385.09
2023-08-11T17:48:00.557Z,97380.19
2023-08-11T17:50:27.176Z,97381.38
2023-08-11T17:52:53.776Z,97378.00
2023-08-11T17:55:20.329Z,97384.34
2023-08-11T17:57:46.948Z,97389.81
2023-08-11T18:00:13.634Z,97384.13
2023-08-11T18:02:41.991Z,97383.47
2023-08-11T18:05:09.365Z,97386.44
2023-08-11T18:07:35.909Z,97390.81
2023-08-11T18:10:02.438Z,97390.19
2023-08-11T18:12:28.988Z,97389.22
2023-08-11T18:14:55.585Z,97392.63
2023-08-11T18:17:22.267Z,97393.56
2023-08-11T18:19:48.886Z,97391.16
2023-08-11T18:22:15.566Z,97392.78
2023-08-11T18:24:42.254Z,97397.97
2023-08-11T18:27:08.872Z,97397.72
2023-08-11T18:29:35.524Z,97393.66
2023-08-11T18:32:02.139Z,97390.84
2023-08-11T18:34:28.690Z,97391.94
2023-08-11T18:36:55.309Z,97393.47
2023-08-11T18:39:21.917Z,97393.16
2023-08-11T18:41:48.528Z,97397.97
2023-08-11T18:44:15.158Z,97393.69
2023-08-11T18:52:09.802Z,97403.09
2023-08-11T18:54:36.690Z,97399.25
2023-08-11T18:57:03.273Z,97405.59
2023-08-11T18:59:29.838Z,97404.84
2023-08-11T19:01:56.409Z,97406.47
2023-08-11T19:04:22.949Z,97405.63
2023-08-11T19:06:49.562Z,97409.34
2023-08-11T19:09:16.275Z,97412.66
2023-08-11T19:11:42.849Z,97412.44
2023-08-11T19:14:09.463Z,97410.78
2023-08-11T19:16:36.197Z,97415.84
2023-08-11T19:19:02.778Z,97418.34
2023-08-11T19:21:29.379Z,97413.19
2023-08-11T19:23:55.980Z,97413.09
2023-08-11T19:26:22.621Z,97418.00
2023-08-11T19:28:50.153Z,97423.16
2023-08-11T19:31:20.058Z,97424.56
2023-08-11T19:33:46.849Z,97418.34
2023-08-11T19:36:13.508Z,97424.00
2023-08-11T19:38:40.102Z,97426.75
2023-08-11T19:41:06.786Z,97423.72
2023-08-11T19:43:33.427Z,97422.50
2023-08-11T19:45:59.979Z,97420.97
2023-08-11T19:48:26.608Z,97427.38
2023-08-11T19:50:53.218Z,97423.22
2023-08-11T19:53:19.883Z,97424.91
2023-08-11T19:55:46.570Z,97421.50
2023-08-11T19:58:13.310Z,97426.63
2023-08-11T20:00:39.949Z,97418.19
2023-08-11T20:03:08.360Z,97425.97
2023-08-11T20:05:35.153Z,97424.75
2023-08-11T20:08:01.836Z,97433.06
2023-08-11T20:10:28.456Z,97432.31
2023-08-11T20:12:55.089Z,97436.22
2023-08-11T20:15:21.719Z,97429.47
2023-08-11T20:17:48.423Z,97428.34
2023-08-11T20:20:15.051Z,97433.28
2023-08-11T20:22:41.643Z,97432.84
2023-08-11T20:25:08.295Z,97435.25
2023-08-11T20:27:34.852Z,97430.19
2023-08-11T20:30:01.460Z,97439.84
2023-08-11T20:32:28.202Z,97436.53
2023-08-11T20:34:54.842Z,97423.13
2023-08-11T20:37:21.538Z,97431.84
2023-08-11T20:39:48.146Z,97429.34
2023-08-11T20:42:14.743Z,97427.94
2023-08-11T20:44:41.334Z,97434.69
2023-08-11T20:47:08.093Z,97429.66
2023-08-11T20:49:34.776Z,97437.84
2023-08-11T20:52:01.379Z,97434.25
2023-08-11T20:54:28.025Z,97436.13
2023-08-11T20:56:54.597Z,97437.19
2023-08-11T20:59:21.204Z,97438.19
2023-08-11T21:01:47.857Z,97441.22
2023-08-11T21:04:14.537Z,97440.47
2023-08-11T21:06:41.103Z,97443.97
2023-08-11T21:09:09.576Z,97445.28
2023-08-11T21:11:36.160Z,97450.41
2023-08-11T21:14:02.758Z,97445.81
2023-08-11T21:16:29.424Z,97446.16
2023-08-11T21:18:56.031Z,97453.44
2023-08-11T21:21:22.686Z,97451.38
2023-08-11T21:23:49.314Z,97454.28
2023-08-11T21:26:15.900Z,97456.81
2023-08-11T21:28:42.551Z,97461.28
2023-08-11T21:31:17.736Z,97461.19
2023-08-11T21:33:45.095Z,97468.94
2023-08-11T21:36:11.724Z,97463.91
2023-08-11T21:38:38.406Z,97470.16
2023-08-11T21:41:05.088Z,97464.38
2023-08-11T21:43:31.696Z,97464.50
2023-08-11T21:45:58.236Z,97458.56
2023-08-11T21:48:24.904Z,97459.34
2023-08-11T21:50:51.489Z,97462.28
2023-08-11T21:53:23.434Z,97462.50
2023-08-11T21:55:50.430Z,97467.94
2023-08-11T21:58:17.076Z,97468.69
2023-08-11T22:00:43.724Z,97459.97
2023-08-11T22:03:10.404Z,97473.13
2023-08-11T22:05:37.055Z,97468.44
2023-08-11T22:08:03.665Z,97471.06
2023-08-11T22:10:30.280Z,97468.19
2023-08-11T22:12:56.989Z,97465.38
2023-08-11T22:15:23.631Z,97469.91
2023-08-11T22:17:50.307Z,97470.78
2023-08-11T22:20:16.938Z,97476.03
2023-08-11T22:22:43.536Z,97474.81
2023-08-11T22:25:10.299Z,97472.88
2023-08-11T22:27:36.893Z,97483.00
2023-08-11T22:30:03.542Z,97472.63
2023-08-11T22:32:30.300Z,97476.22
2023-08-11T22:34:57.170Z,97477.75
2023-08-11T22:37:23.797Z,97479.97
2023-08-11T22:39:50.402Z,97480.28
2023-08-11T22:42:17.015Z,97473.84
2023-08-11T22:44:43.633Z,97472.97
2023-08-11T22:47:10.406Z,97473.84
2023-08-11T22:49:37.306Z,97466.84
2023-08-11T22:52:03.911Z,97472.97
2023-08-11T22:54:30.593Z,97478.53
2023-08-11T22:56:57.178Z,97471.88
2023-08-11T22:59:23.810Z,97470.78
2023-08-11T23:01:50.491Z,97470.44
2023-08-11T23:04:17.147Z,97479.47
2023-08-11T23:06:43.801Z,97472.41
2023-08-11T23:09:10.362Z,97475.97
2023-08-11T23:11:37.070Z,97480.25
2023-08-11T23:14:03.707Z,97475.81
2023-08-11T23:16:30.484Z,97472.41
2023-08-11T23:18:57.093Z,97477.88
2023-08-11T23:21:23.746Z,97479.47
2023-08-11T23:23:53.117Z,97469.34
2023-08-11T23:26:19.775Z,97476.75
2023-08-11T23:28:46.425Z,97474.91
2023-08-11T23:31:13.088Z,97474.22
2023-08-11T23:33:39.770Z,97467.22
2023-08-11T23:36:06.382Z,97468.78
2023-08-11T23:38:33.009Z,97452.59
2023-08-11T23:40:59.629Z,97456.84
2023-08-11T23:43:26.260Z,97457.09
2023-08-11T23:45:52.918Z,97461.00
2023-08-11T23:48:19.611Z,97464.69
2023-08-11T23:50:46.315Z,97456.41
2023-08-11T23:53:12.929Z,97468.59
2023-08-11T23:55:39.631Z,97458.91
2023-08-11T23:58:06.288Z,97464.22
